Besiktas Bosphorus — TCOG3 — position and weather

sailwx.info

Track history (hours):
 
Tides and Currents Weather Stations Pressure Air Temp Water Temp Dewpoint Dewpoint Depression Visibility Wind Speed Wind Dir Waves Ship Positions

Besiktas Bosphorus

Last reported at 2016-Jul-29 13:20 UTC. Time now 2016-Jul-31 03:33 UTC.
Position N 44°34' E 037°56'.

Length 274 m; draft 8.8 m.

Type: Tanker. MMSI: 271000817.

Date/timePositionNaut miles runAvg speedWind from/ knotsBaromVisibWave heightAir tempDewpointWater temp
2016-Jul-29 13:20N 44°34' E 037°56'0 0.0
2016-Jul-29 12:32N 44°34' E 037°56'0 0.0
2016-Jul-29 11:32N 44°34' E 037°56'0 0.0
2016-Jul-29 10:32N 44°34' E 037°56'0 0.0
2016-Jul-29 09:32N 44°34' E 037°56'0 0.0
2016-Jul-27 20:07N 44°34' E 037°56'0 0.0
2016-Jul-27 19:26N 44°34' E 037°56'0 0.0
2016-Jul-27 18:10N 44°34' E 037°56'0 0.0
2016-Jul-27 17:28N 44°34' E 037°56'0 0.0
2016-Jul-27 16:31N 44°34' E 037°56'0 0.0
2016-Jul-27 15:32N 44°34' E 037°56'0 0.0
2016-Jul-27 14:31N 44°34' E 037°56'0 0.0
2016-Jul-27 13:31N 44°34' E 037°56'0 0.0
2016-Jul-27 12:31N 44°34' E 037°56'0 0.0
2016-Jul-27 11:28N 44°34' E 037°56'0 0.0
2016-Jul-27 10:32N 44°34' E 037°56'0 0.0
2016-Jul-27 09:32N 44°34' E 037°56'0 0.0
2016-Jul-27 08:32N 44°34' E 037°56'0 0.0
2016-Jul-27 07:32N 44°34' E 037°56'0 0.0
2016-Jul-27 06:31N 44°34' E 037°56'0 0.0
2016-Jul-27 05:32N 44°34' E 037°56'0 0.0
2016-Jul-27 04:31N 44°34' E 037°56'0 0.0
2016-Jul-27 03:31N 44°34' E 037°56'0 0.0
2016-Jul-27 02:32N 44°34' E 037°56'0 0.0
2016-Jul-27 01:31N 44°34' E 037°56'0 0.0
2016-Jul-27 00:29N 44°34' E 037°56'0 0.0
2016-Jul-26 23:31N 44°34' E 037°56'0 0.0
2016-Jul-26 22:31N 44°34' E 037°56'0 0.0
2016-Jul-26 21:31N 44°34' E 037°56'0 0.0
2016-Jul-26 20:28N 44°34' E 037°56'0 0.0
2016-Jul-26 19:29N 44°34' E 037°56'0 0.1
2016-Jul-26 18:31N 44°34' E 037°56'0 0.0
2016-Jul-26 17:32N 44°34' E 037°56'0 0.0
2016-Jul-26 16:31N 44°34' E 037°56'0 0.1
2016-Jul-26 15:31N 44°34' E 037°56'0 0.1
2016-Jul-26 14:31N 44°34' E 037°56'0 0.0
2016-Jul-26 13:31N 44°34' E 037°56'0 0.0
2016-Jul-26 12:32N 44°34' E 037°56'0 0.0
2016-Jul-26 11:31N 44°34' E 037°56'0 0.0
2016-Jul-26 10:31N 44°34' E 037°56'0 0.0
2016-Jul-26 09:31N 44°34' E 037°56'0 0.0
2016-Jul-26 08:31N 44°34' E 037°56'0 0.0
2016-Jul-26 07:31N 44°34' E 037°56'0 0.0
2016-Jul-26 06:31N 44°34' E 037°56'0 0.0
2016-Jul-26 05:32N 44°34' E 037°56'0 0.0
2016-Jul-26 04:31N 44°34' E 037°56'0 0.0
2016-Jul-26 03:31N 44°34' E 037°56'0 0.0
2016-Jul-26 02:28N 44°34' E 037°56'0 0.0
2016-Jul-26 01:32N 44°34' E 037°56'0 0.0
2016-Jul-26 00:31N 44°34' E 037°56'0 0.1
2016-Jul-25 23:32N 44°34' E 037°56'0 0.0
2016-Jul-25 22:31N 44°34' E 037°56'0 0.0
2016-Jul-25 21:31N 44°34' E 037°56'0 0.0
2016-Jul-25 20:31N 44°34' E 037°56'0 0.0
2016-Jul-25 19:31N 44°34' E 037°56'0 0.1
2016-Jul-25 18:32N 44°34' E 037°56'0 0.0
2016-Jul-25 17:31N 44°34' E 037°56'0 0.0
2016-Jul-25 16:31N 44°34' E 037°56'0 0.0
2016-Jul-25 15:23N 44°34' E 037°56'0 0.0
2016-Jul-25 14:32N 44°34' E 037°56'1 0.6
2016-Jul-25 13:33N 44°34' E 037°55'1211.5
2016-Jul-25 12:33N 44°25' E 037°45'2 2.3
2016-Jul-25 11:33N 44°23' E 037°43'1 0.7
2016-Jul-25 10:33N 44°22' E 037°43'0 0.4
2016-Jul-25 09:33N 44°22' E 037°43'0 0.3
2016-Jul-25 08:33N 44°22' E 037°43'0 0.3
2016-Jul-25 07:33N 44°21' E 037°43'3 3.2
2016-Jul-25 06:33N 44°20' E 037°39'1211.9
2016-Jul-25 05:33N 44°16' E 037°23'1 0.6
2016-Jul-25 04:33N 44°16' E 037°22'1 0.9
2016-Jul-25 03:33N 44°17' E 037°23'1 0.9
2016-Jul-25 02:33N 44°18' E 037°23'1 0.1
2016-Jul-24 16:34N 44°17' E 037°23'1 0.5
2016-Jul-24 15:33N 44°17' E 037°24'1 0.5
2016-Jul-24 14:25N 44°16' E 037°25'0 0.5
2016-Jul-24 13:33N 44°16' E 037°25'0 0.5
2016-Jul-24 12:33N 44°16' E 037°26'0 0.4
2016-Jul-24 11:28N 44°16' E 037°26'0 0.3
2016-Jul-24 10:34N 44°16' E 037°27'0 0.2
2016-Jul-24 09:26N 44°16' E 037°27'0 0.3
2016-Jul-24 08:33N 44°17' E 037°27'0 0.4
2016-Jul-24 07:33N 44°17' E 037°27'0 0.4
2016-Jul-24 06:33N 44°17' E 037°27'0 0.3
2016-Jul-24 05:33N 44°18' E 037°27'0 0.2
2016-Jul-24 04:27N 44°18' E 037°27'0 0.1
2016-Jul-24 03:31N 44°18' E 037°27'0 0.1
2016-Jul-24 02:34N 44°18' E 037°27'5 0.6
2016-Jul-23 18:29N 44°19' E 037°34'1 0.7
2016-Jul-23 17:06N 44°19' E 037°35'0 0.7
2016-Jul-23 16:33N 44°20' E 037°35'1 0.6
2016-Jul-23 15:33N 44°20' E 037°35'1 0.6
2016-Jul-23 14:33N 44°21' E 037°35'3 3.3
2016-Jul-23 13:33N 44°24' E 037°35'1 1.1
2016-Jul-23 12:33N 44°23' E 037°36'2 2.3
2016-Jul-23 11:34N 44°21' E 037°36'2 2.5
2016-Jul-23 10:33N 44°23' E 037°33'0 0.2
2016-Jul-23 09:33N 44°23' E 037°33'0 0.2
2016-Jul-23 08:33N 44°22' E 037°33'0 0.2
2016-Jul-23 07:33N 44°22' E 037°33'0 0.2
2016-Jul-23 06:33N 44°22' E 037°33'0 0.2
2016-Jul-23 04:34N 44°22' E 037°32'0 0.4
2016-Jul-23 03:33N 44°22' E 037°32'1 0.5
2016-Jul-23 02:33N 44°22' E 037°31'0 0.5
2016-Jul-23 01:33N 44°21' E 037°31'0 0.4
2016-Jul-23 00:27N 44°21' E 037°30'0 0.2
2016-Jul-22 23:27N 44°21' E 037°30'0 0.1
2016-Jul-22 22:33N 44°21' E 037°30'0 0.2
2016-Jul-22 20:12N 44°21' E 037°29'0 0.4
2016-Jul-22 19:10N 44°21' E 037°30'1 0.5
2016-Jul-22 17:07N 44°20' E 037°30'0 0.5
2016-Jul-22 16:33N 44°19' E 037°30'1 0.7
2016-Jul-22 15:30N 44°19' E 037°31'1 0.9
2016-Jul-22 14:33N 44°18' E 037°31'2 1.6
2016-Jul-22 13:33N 44°17' E 037°33'1 1.1
2016-Jul-22 12:32N 44°18' E 037°34'7 7.3
2016-Jul-22 11:33N 44°20' E 037°25'5 4.4
2016-Jul-22 10:30N 44°20' E 037°18'1 0.7
2016-Jul-22 09:32N 44°20' E 037°18'1 0.8
2016-Jul-22 08:17N 44°19' E 037°20'1 0.9
2016-Jul-22 07:25N 44°19' E 037°21'3 1.0
2016-Jul-22 04:33N 44°19' E 037°24'1 0.9
2016-Jul-22 03:33N 44°19' E 037°26'1 1.0
2016-Jul-22 02:27N 44°19' E 037°27'1 0.8
2016-Jul-22 01:08N 44°19' E 037°29'2 0.8
2016-Jul-21 22:03N 44°20' E 037°32'2 0.7
2016-Jul-21 19:17N 44°20' E 037°35'1 0.6
2016-Jul-21 18:26N 44°20' E 037°35'0 0.4
2016-Jul-21 17:33N 44°20' E 037°36'6 5.6
2016-Jul-21 16:33N 44°25' E 037°40'2 1.6
2016-Jul-21 15:33N 44°26' E 037°41'0 0.4
2016-Jul-21 14:33N 44°26' E 037°41'1 0.5
2016-Jul-21 13:33N 44°26' E 037°40'1 0.5
2016-Jul-21 12:33N 44°25' E 037°40'1 0.7
2016-Jul-21 11:33N 44°25' E 037°39'1 0.7
2016-Jul-21 10:33N 44°24' E 037°38'1 0.7
2016-Jul-21 09:33N 44°24' E 037°38'0 0.5
2016-Jul-21 08:33N 44°23' E 037°37'0 0.5
2016-Jul-21 07:33N 44°23' E 037°37'0 0.4
2016-Jul-21 06:33N 44°23' E 037°37'0 0.3
2016-Jul-21 05:33N 44°22' E 037°37'0 0.3
2016-Jul-21 04:33N 44°22' E 037°37'0 0.3
2016-Jul-21 03:33N 44°22' E 037°37'4 4.2
2016-Jul-21 02:33N 44°22' E 037°31'3 2.8
2016-Jul-21 01:28N 44°22' E 037°26'2 0.8
2016-Jul-20 22:33N 44°21' E 037°29'2 0.8
2016-Jul-20 19:28N 44°21' E 037°33'1 0.6
2016-Jul-20 18:31N 44°21' E 037°33'1 0.4
2016-Jul-20 16:29N 44°22' E 037°34'0 0.3
2016-Jul-20 15:33N 44°22' E 037°35'4 4.2
2016-Jul-20 14:32N 44°25' E 037°38'1 1.4
2016-Jul-20 13:33N 44°26' E 037°40'1 1.0
2016-Jul-20 12:33N 44°25' E 037°39'1 1.0
2016-Jul-20 11:33N 44°25' E 037°37'2 2.4
2016-Jul-20 10:33N 44°24' E 037°34'9 9.0
2016-Jul-20 09:34N 44°23' E 037°22'  
Track history (hours):
 
Tides and Currents Weather Stations Pressure Air Temp Water Temp Dewpoint Dewpoint Depression Visibility Wind Speed Wind Dir Waves Ship Positions

Besiktas Bosphorus

Last reported at 2016-Jul-29 13:20 UTC. Time now 2016-Jul-31 03:33 UTC.
Position N 44°34' E 037°56'.

Length 274 m; draft 8.8 m.

Type: Tanker. MMSI: 271000817.

Date/timePositionNaut miles runAvg speedWind from/ knotsBaromVisibWave heightAir tempDewpointWater temp
2016-Jul-29 13:20N 44°34' E 037°56'0 0.0
2016-Jul-29 12:32N 44°34' E 037°56'0 0.0
2016-Jul-29 11:32N 44°34' E 037°56'0 0.0
2016-Jul-29 10:32N 44°34' E 037°56'0 0.0
2016-Jul-29 09:32N 44°34' E 037°56'0 0.0
2016-Jul-27 20:07N 44°34' E 037°56'0 0.0
2016-Jul-27 19:26N 44°34' E 037°56'0 0.0
2016-Jul-27 18:10N 44°34' E 037°56'0 0.0
2016-Jul-27 17:28N 44°34' E 037°56'0 0.0
2016-Jul-27 16:31N 44°34' E 037°56'0 0.0
2016-Jul-27 15:32N 44°34' E 037°56'0 0.0
2016-Jul-27 14:31N 44°34' E 037°56'0 0.0
2016-Jul-27 13:31N 44°34' E 037°56'0 0.0
2016-Jul-27 12:31N 44°34' E 037°56'0 0.0
2016-Jul-27 11:28N 44°34' E 037°56'0 0.0
2016-Jul-27 10:32N 44°34' E 037°56'0 0.0
2016-Jul-27 09:32N 44°34' E 037°56'0 0.0
2016-Jul-27 08:32N 44°34' E 037°56'0 0.0
2016-Jul-27 07:32N 44°34' E 037°56'0 0.0
2016-Jul-27 06:31N 44°34' E 037°56'0 0.0
2016-Jul-27 05:32N 44°34' E 037°56'0 0.0
2016-Jul-27 04:31N 44°34' E 037°56'0 0.0
2016-Jul-27 03:31N 44°34' E 037°56'0 0.0
2016-Jul-27 02:32N 44°34' E 037°56'0 0.0
2016-Jul-27 01:31N 44°34' E 037°56'0 0.0
2016-Jul-27 00:29N 44°34' E 037°56'0 0.0
2016-Jul-26 23:31N 44°34' E 037°56'0 0.0
2016-Jul-26 22:31N 44°34' E 037°56'0 0.0
2016-Jul-26 21:31N 44°34' E 037°56'0 0.0
2016-Jul-26 20:28N 44°34' E 037°56'0 0.0
2016-Jul-26 19:29N 44°34' E 037°56'0 0.1
2016-Jul-26 18:31N 44°34' E 037°56'0 0.0
2016-Jul-26 17:32N 44°34' E 037°56'0 0.0
2016-Jul-26 16:31N 44°34' E 037°56'0 0.1
2016-Jul-26 15:31N 44°34' E 037°56'0 0.1
2016-Jul-26 14:31N 44°34' E 037°56'0 0.0
2016-Jul-26 13:31N 44°34' E 037°56'0 0.0
2016-Jul-26 12:32N 44°34' E 037°56'0 0.0
2016-Jul-26 11:31N 44°34' E 037°56'0 0.0
2016-Jul-26 10:31N 44°34' E 037°56'0 0.0
2016-Jul-26 09:31N 44°34' E 037°56'0 0.0
2016-Jul-26 08:31N 44°34' E 037°56'0 0.0
2016-Jul-26 07:31N 44°34' E 037°56'0 0.0
2016-Jul-26 06:31N 44°34' E 037°56'0 0.0
2016-Jul-26 05:32N 44°34' E 037°56'0 0.0
2016-Jul-26 04:31N 44°34' E 037°56'0 0.0
2016-Jul-26 03:31N 44°34' E 037°56'0 0.0
2016-Jul-26 02:28N 44°34' E 037°56'0 0.0
2016-Jul-26 01:32N 44°34' E 037°56'0 0.0
2016-Jul-26 00:31N 44°34' E 037°56'0 0.1
2016-Jul-25 23:32N 44°34' E 037°56'0 0.0
2016-Jul-25 22:31N 44°34' E 037°56'0 0.0
2016-Jul-25 21:31N 44°34' E 037°56'0 0.0
2016-Jul-25 20:31N 44°34' E 037°56'0 0.0
2016-Jul-25 19:31N 44°34' E 037°56'0 0.1
2016-Jul-25 18:32N 44°34' E 037°56'0 0.0
2016-Jul-25 17:31N 44°34' E 037°56'0 0.0
2016-Jul-25 16:31N 44°34' E 037°56'0 0.0
2016-Jul-25 15:23N 44°34' E 037°56'0 0.0
2016-Jul-25 14:32N 44°34' E 037°56'1 0.6
2016-Jul-25 13:33N 44°34' E 037°55'1211.5
2016-Jul-25 12:33N 44°25' E 037°45'2 2.3
2016-Jul-25 11:33N 44°23' E 037°43'1 0.7
2016-Jul-25 10:33N 44°22' E 037°43'0 0.4
2016-Jul-25 09:33N 44°22' E 037°43'0 0.3
2016-Jul-25 08:33N 44°22' E 037°43'0 0.3
2016-Jul-25 07:33N 44°21' E 037°43'3 3.2
2016-Jul-25 06:33N 44°20' E 037°39'1211.9
2016-Jul-25 05:33N 44°16' E 037°23'1 0.6
2016-Jul-25 04:33N 44°16' E 037°22'1 0.9
2016-Jul-25 03:33N 44°17' E 037°23'1 0.9
2016-Jul-25 02:33N 44°18' E 037°23'1 0.1
2016-Jul-24 16:34N 44°17' E 037°23'1 0.5
2016-Jul-24 15:33N 44°17' E 037°24'1 0.5
2016-Jul-24 14:25N 44°16' E 037°25'0 0.5
2016-Jul-24 13:33N 44°16' E 037°25'0 0.5
2016-Jul-24 12:33N 44°16' E 037°26'0 0.4
2016-Jul-24 11:28N 44°16' E 037°26'0 0.3
2016-Jul-24 10:34N 44°16' E 037°27'0 0.2
2016-Jul-24 09:26N 44°16' E 037°27'0 0.3
2016-Jul-24 08:33N 44°17' E 037°27'0 0.4
2016-Jul-24 07:33N 44°17' E 037°27'0 0.4
2016-Jul-24 06:33N 44°17' E 037°27'0 0.3
2016-Jul-24 05:33N 44°18' E 037°27'0 0.2
2016-Jul-24 04:27N 44°18' E 037°27'0 0.1
2016-Jul-24 03:31N 44°18' E 037°27'0 0.1
2016-Jul-24 02:34N 44°18' E 037°27'5 0.6
2016-Jul-23 18:29N 44°19' E 037°34'1 0.7
2016-Jul-23 17:06N 44°19' E 037°35'0 0.7
2016-Jul-23 16:33N 44°20' E 037°35'1 0.6
2016-Jul-23 15:33N 44°20' E 037°35'1 0.6
2016-Jul-23 14:33N 44°21' E 037°35'3 3.3
2016-Jul-23 13:33N 44°24' E 037°35'1 1.1
2016-Jul-23 12:33N 44°23' E 037°36'2 2.3
2016-Jul-23 11:34N 44°21' E 037°36'2 2.5
2016-Jul-23 10:33N 44°23' E 037°33'0 0.2
2016-Jul-23 09:33N 44°23' E 037°33'0 0.2
2016-Jul-23 08:33N 44°22' E 037°33'0 0.2
2016-Jul-23 07:33N 44°22' E 037°33'0 0.2
2016-Jul-23 06:33N 44°22' E 037°33'0 0.2
2016-Jul-23 04:34N 44°22' E 037°32'0 0.4
2016-Jul-23 03:33N 44°22' E 037°32'1 0.5
2016-Jul-23 02:33N 44°22' E 037°31'0 0.5
2016-Jul-23 01:33N 44°21' E 037°31'0 0.4
2016-Jul-23 00:27N 44°21' E 037°30'0 0.2
2016-Jul-22 23:27N 44°21' E 037°30'0 0.1
2016-Jul-22 22:33N 44°21' E 037°30'0 0.2
2016-Jul-22 20:12N 44°21' E 037°29'0 0.4
2016-Jul-22 19:10N 44°21' E 037°30'1 0.5
2016-Jul-22 17:07N 44°20' E 037°30'0 0.5
2016-Jul-22 16:33N 44°19' E 037°30'1 0.7
2016-Jul-22 15:30N 44°19' E 037°31'1 0.9
2016-Jul-22 14:33N 44°18' E 037°31'2 1.6
2016-Jul-22 13:33N 44°17' E 037°33'1 1.1
2016-Jul-22 12:32N 44°18' E 037°34'7 7.3
2016-Jul-22 11:33N 44°20' E 037°25'5 4.4
2016-Jul-22 10:30N 44°20' E 037°18'1 0.7
2016-Jul-22 09:32N 44°20' E 037°18'1 0.8
2016-Jul-22 08:17N 44°19' E 037°20'1 0.9
2016-Jul-22 07:25N 44°19' E 037°21'3 1.0
2016-Jul-22 04:33N 44°19' E 037°24'1 0.9
2016-Jul-22 03:33N 44°19' E 037°26'1 1.0
2016-Jul-22 02:27N 44°19' E 037°27'1 0.8
2016-Jul-22 01:08N 44°19' E 037°29'2 0.8
2016-Jul-21 22:03N 44°20' E 037°32'2 0.7
2016-Jul-21 19:17N 44°20' E 037°35'1 0.6
2016-Jul-21 18:26N 44°20' E 037°35'0 0.4
2016-Jul-21 17:33N 44°20' E 037°36'6 5.6
2016-Jul-21 16:33N 44°25' E 037°40'2 1.6
2016-Jul-21 15:33N 44°26' E 037°41'0 0.4
2016-Jul-21 14:33N 44°26' E 037°41'1 0.5
2016-Jul-21 13:33N 44°26' E 037°40'1 0.5
2016-Jul-21 12:33N 44°25' E 037°40'1 0.7
2016-Jul-21 11:33N 44°25' E 037°39'1 0.7
2016-Jul-21 10:33N 44°24' E 037°38'1 0.7
2016-Jul-21 09:33N 44°24' E 037°38'0 0.5
2016-Jul-21 08:33N 44°23' E 037°37'0 0.5
2016-Jul-21 07:33N 44°23' E 037°37'0 0.4
2016-Jul-21 06:33N 44°23' E 037°37'0 0.3
2016-Jul-21 05:33N 44°22' E 037°37'0 0.3
2016-Jul-21 04:33N 44°22' E 037°37'0 0.3
2016-Jul-21 03:33N 44°22' E 037°37'4 4.2
2016-Jul-21 02:33N 44°22' E 037°31'3 2.8
2016-Jul-21 01:28N 44°22' E 037°26'2 0.8
2016-Jul-20 22:33N 44°21' E 037°29'2 0.8
2016-Jul-20 19:28N 44°21' E 037°33'1 0.6
2016-Jul-20 18:31N 44°21' E 037°33'1 0.4
2016-Jul-20 16:29N 44°22' E 037°34'0 0.3
2016-Jul-20 15:33N 44°22' E 037°35'4 4.2
2016-Jul-20 14:32N 44°25' E 037°38'1 1.4
2016-Jul-20 13:33N 44°26' E 037°40'1 1.0
2016-Jul-20 12:33N 44°25' E 037°39'1 1.0
2016-Jul-20 11:33N 44°25' E 037°37'2 2.4
2016-Jul-20 10:33N 44°24' E 037°34'9 9.0
2016-Jul-20 09:34N 44°23' E 037°22'  

Dump ship's entire track history